createdAt,value
2023-05-15T00:00:52.284Z,15.12
2023-05-15T00:03:19.294Z,15.11
2023-05-15T00:05:46.308Z,15.10
2023-05-15T00:08:13.200Z,15.11
2023-05-15T00:10:44.917Z,15.12
2023-05-15T00:13:19.030Z,15.14
2023-05-15T00:15:45.983Z,15.15
2023-05-15T00:18:12.983Z,15.17
2023-05-15T00:20:39.982Z,15.18
2023-05-15T00:23:06.831Z,15.19
2023-05-15T00:25:33.766Z,15.21
2023-05-15T00:28:00.561Z,15.21
2023-05-15T00:30:28.101Z,15.22
2023-05-15T00:32:55.013Z,15.18
2023-05-15T00:35:22.156Z,15.16
2023-05-15T00:37:49.024Z,15.14
2023-05-15T00:40:22.438Z,15.11
2023-05-15T00:42:51.235Z,15.05
2023-05-15T00:45:19.529Z,14.96
2023-05-15T00:47:46.608Z,14.97
2023-05-15T00:50:13.759Z,14.95
2023-05-15T00:52:40.626Z,14.91
2023-05-15T00:55:08.016Z,14.87
2023-05-15T00:57:35.055Z,14.84
2023-05-15T01:00:06.337Z,14.83
2023-05-15T01:02:33.402Z,14.80
2023-05-15T01:05:00.795Z,14.80
2023-05-15T01:07:31.430Z,14.74
2023-05-15T01:09:59.788Z,14.74
2023-05-15T01:12:30.381Z,14.71
2023-05-15T01:14:57.693Z,14.69
2023-05-15T01:17:24.591Z,14.66
2023-05-15T01:19:52.765Z,14.63
2023-05-15T01:22:59.312Z,14.59
2023-05-15T01:26:09.872Z,14.50
2023-05-15T01:28:43.588Z,14.49
2023-05-15T01:31:19.497Z,14.48
2023-05-15T01:33:51.260Z,14.46
2023-05-15T01:36:43.935Z,14.41
2023-05-15T01:39:13.006Z,14.36
2023-05-15T01:41:52.444Z,14.31
2023-05-15T01:44:26.574Z,14.27
2023-05-15T01:46:58.716Z,14.23
2023-05-15T01:49:28.202Z,14.23
2023-05-15T01:52:27.862Z,14.23
2023-05-15T01:54:55.519Z,14.25
2023-05-15T01:57:23.401Z,14.28
2023-05-15T01:59:51.464Z,14.27
2023-05-15T02:02:19.701Z,14.27
2023-05-15T02:04:47.691Z,14.22
2023-05-15T02:07:16.213Z,14.20
2023-05-15T02:09:44.272Z,14.19
2023-05-15T02:12:11.839Z,14.14
2023-05-15T02:14:41.176Z,14.15
2023-05-15T02:17:08.408Z,14.14
2023-05-15T02:19:35.741Z,14.15
2023-05-15T02:22:02.678Z,14.17
2023-05-15T02:24:29.499Z,14.19
2023-05-15T02:27:20.542Z,14.22
2023-05-15T02:30:02.300Z,14.27
2023-05-15T02:33:01.535Z,14.26
2023-05-15T02:35:57.363Z,14.23
2023-05-15T02:38:39.431Z,14.26
2023-05-15T02:41:07.729Z,14.22
2023-05-15T02:43:37.304Z,14.20
2023-05-15T02:46:05.211Z,14.15
2023-05-15T02:48:32.486Z,14.08
2023-05-15T02:50:59.788Z,14.05
2023-05-15T02:53:26.720Z,14.00
2023-05-15T02:55:53.575Z,13.97
2023-05-15T02:58:20.424Z,13.93
2023-05-15T03:00:47.427Z,13.92
2023-05-15T03:03:14.373Z,13.93
2023-05-15T03:05:41.233Z,13.88
2023-05-15T03:08:08.162Z,13.84
2023-05-15T03:10:35.052Z,13.82
2023-05-15T03:13:02.670Z,13.79
2023-05-15T03:15:29.539Z,13.77
2023-05-15T03:17:56.508Z,13.79
2023-05-15T03:20:23.440Z,13.74
2023-05-15T03:22:50.427Z,13.71
2023-05-15T03:25:17.597Z,13.68
2023-05-15T03:27:44.450Z,13.64
2023-05-15T03:30:11.435Z,13.61
2023-05-15T03:32:41.532Z,13.58
2023-05-15T03:35:11.121Z,13.52
2023-05-15T03:37:37.956Z,13.44
2023-05-15T03:40:10.684Z,13.43
2023-05-15T03:42:37.792Z,13.42
2023-05-15T03:45:05.538Z,13.42
2023-05-15T03:47:39.894Z,13.39
2023-05-15T03:50:07.306Z,13.37
2023-05-15T03:52:37.792Z,13.34
2023-05-15T03:55:08.154Z,13.32
2023-05-15T03:57:38.501Z,13.34
2023-05-15T04:00:10.274Z,13.38
2023-05-15T04:02:38.068Z,13.41
2023-05-15T04:05:05.860Z,13.46
2023-05-15T04:07:37.493Z,13.50
2023-05-15T04:10:04.954Z,13.52
2023-05-15T04:12:34.568Z,13.59
2023-05-15T04:15:21.689Z,13.69
2023-05-15T04:17:53.722Z,13.71
2023-05-15T04:20:24.986Z,13.73
2023-05-15T04:22:52.874Z,13.77
2023-05-15T04:25:20.284Z,13.80
2023-05-15T04:27:47.533Z,13.83
2023-05-15T04:30:14.631Z,13.90
2023-05-15T04:32:41.600Z,13.97
2023-05-15T04:35:11.557Z,14.01
2023-05-15T04:37:39.823Z,14.03
2023-05-15T04:40:08.240Z,14.06
2023-05-15T04:42:37.136Z,14.11
2023-05-15T04:45:06.421Z,14.25
2023-05-15T04:47:33.450Z,14.36
2023-05-15T04:50:00.306Z,14.49
2023-05-15T04:52:27.126Z,14.69
2023-05-15T04:54:55.690Z,14.91
2023-05-15T04:57:23.009Z,15.07
2023-05-15T04:59:50.055Z,15.19
2023-05-15T05:02:21.383Z,15.34
2023-05-15T05:04:48.412Z,15.63
2023-05-15T05:07:15.669Z,15.96
2023-05-15T05:09:42.814Z,16.30
2023-05-15T05:12:09.980Z,16.61
2023-05-15T05:14:37.340Z,16.90
2023-05-15T05:17:04.578Z,17.15
2023-05-15T05:19:31.501Z,17.40
2023-05-15T05:22:01.351Z,17.57
2023-05-15T05:24:28.539Z,17.80
2023-05-15T05:26:58.075Z,17.96
2023-05-15T05:29:26.065Z,18.16
2023-05-15T05:31:53.651Z,18.33
2023-05-15T05:34:20.765Z,18.53
2023-05-15T05:36:47.818Z,18.73
2023-05-15T05:39:16.828Z,19.04
2023-05-15T05:41:44.237Z,19.29
2023-05-15T05:44:11.485Z,19.50
2023-05-15T05:46:38.354Z,19.75
2023-05-15T05:49:05.431Z,20.03
2023-05-15T05:51:32.420Z,20.09
2023-05-15T05:53:59.340Z,19.93
2023-05-15T05:56:26.571Z,19.77
2023-05-15T05:58:53.957Z,20.03
2023-05-15T06:01:21.357Z,20.41
2023-05-15T06:03:48.384Z,20.93
2023-05-15T06:06:15.476Z,21.47
2023-05-15T06:08:42.286Z,22.05
2023-05-15T06:11:09.163Z,22.51
2023-05-15T06:13:36.009Z,22.81
2023-05-15T06:16:02.955Z,22.67
2023-05-15T06:18:29.998Z,22.45
2023-05-15T06:21:00.198Z,22.13
2023-05-15T06:23:27.699Z,21.90
2023-05-15T06:25:54.625Z,21.91
2023-05-15T06:28:21.598Z,22.24
2023-05-15T06:30:48.624Z,22.86
2023-05-15T06:33:15.944Z,23.72
2023-05-15T06:35:48.951Z,24.66
2023-05-15T06:38:15.842Z,25.19
2023-05-15T06:40:42.673Z,24.95
2023-05-15T06:43:09.473Z,24.49
2023-05-15T06:45:36.511Z,23.99
2023-05-15T06:48:03.629Z,23.40
2023-05-15T06:50:30.584Z,23.14
2023-05-15T06:52:58.746Z,22.92
2023-05-15T06:55:25.753Z,22.67
2023-05-15T06:57:52.850Z,22.63
2023-05-15T07:00:19.940Z,23.07
2023-05-15T07:02:47.028Z,23.57
2023-05-15T07:05:15.045Z,23.99
2023-05-15T07:07:42.700Z,24.18
2023-05-15T07:10:09.778Z,24.24
2023-05-15T07:12:36.812Z,24.45
2023-05-15T07:15:05.016Z,24.75
2023-05-15T07:17:33.681Z,24.87
2023-05-15T07:20:00.650Z,24.86
2023-05-15T07:22:29.015Z,24.92
2023-05-15T07:24:55.945Z,24.98
2023-05-15T07:27:23.114Z,25.37
2023-05-15T07:29:50.099Z,26.49
2023-05-15T07:32:16.955Z,27.90
2023-05-15T07:34:43.997Z,29.61
2023-05-15T07:37:10.921Z,30.26
2023-05-15T07:39:37.929Z,30.75
2023-05-15T07:42:05.090Z,31.15
2023-05-15T07:44:32.104Z,31.08
2023-05-15T07:46:59.405Z,30.24
2023-05-15T07:49:26.324Z,30.00
2023-05-15T07:51:53.400Z,30.20
2023-05-15T07:54:20.750Z,31.16
2023-05-15T07:56:47.631Z,31.70
2023-05-15T07:59:14.549Z,31.72
2023-05-15T08:01:41.482Z,32.13
2023-05-15T08:04:09.632Z,32.59
2023-05-15T08:06:39.908Z,32.96
2023-05-15T08:09:06.802Z,33.22
2023-05-15T08:11:33.827Z,33.45
2023-05-15T08:14:00.838Z,33.51
2023-05-15T08:16:27.846Z,33.25
2023-05-15T08:18:58.718Z,32.63
2023-05-15T08:21:25.779Z,31.85
2023-05-15T08:23:54.650Z,31.29
2023-05-15T08:26:21.694Z,30.98
2023-05-15T08:28:48.586Z,30.84
2023-05-15T08:31:16.044Z,30.52
2023-05-15T08:33:43.067Z,30.87
2023-05-15T08:36:10.119Z,30.74
2023-05-15T08:38:36.950Z,31.92
2023-05-15T08:41:12.678Z,33.56
2023-05-15T08:43:41.387Z,34.25
2023-05-15T08:46:08.628Z,34.67
2023-05-15T08:48:38.404Z,35.94
2023-05-15T08:51:09.362Z,36.11
2023-05-15T08:53:36.822Z,36.79
2023-05-15T08:56:04.400Z,36.99
2023-05-15T08:58:32.310Z,37.33
2023-05-15T09:00:59.967Z,37.54
2023-05-15T09:03:27.033Z,37.03
2023-05-15T09:05:55.141Z,37.63
2023-05-15T09:08:23.878Z,37.85
2023-05-15T09:10:53.996Z,37.87
2023-05-15T09:13:20.886Z,38.10
2023-05-15T09:15:48.202Z,38.18
2023-05-15T09:18:16.518Z,38.83
2023-05-15T09:20:43.547Z,39.13
2023-05-15T09:23:27.130Z,38.25
2023-05-15T09:25:56.547Z,37.23
2023-05-15T09:28:32.336Z,37.48
2023-05-15T09:31:04.225Z,38.19
2023-05-15T09:33:39.580Z,38.47
2023-05-15T09:36:08.255Z,38.61
2023-05-15T09:38:42.958Z,38.17
2023-05-15T09:41:10.259Z,38.25
2023-05-15T09:43:39.209Z,38.03
2023-05-15T09:46:08.147Z,38.59
2023-05-15T09:48:35.675Z,38.90
2023-05-15T09:51:02.712Z,38.70
2023-05-15T09:53:30.471Z,38.90
2023-05-15T09:56:00.260Z,38.35
2023-05-15T09:58:27.070Z,38.08
2023-05-15T10:00:53.960Z,38.03
2023-05-15T10:03:23.440Z,37.69
2023-05-15T10:05:50.719Z,37.03
2023-05-15T10:08:28.381Z,35.44
2023-05-15T10:10:59.728Z,34.06
2023-05-15T10:13:28.136Z,33.36
2023-05-15T10:15:56.152Z,32.04
2023-05-15T10:18:26.183Z,30.65
2023-05-15T10:20:53.087Z,29.39
2023-05-15T10:23:22.397Z,28.28
2023-05-15T10:26:08.725Z,27.70
2023-05-15T10:28:37.624Z,27.21
2023-05-15T10:31:05.989Z,26.54
2023-05-15T10:33:35.291Z,26.47
2023-05-15T10:36:03.626Z,26.50
2023-05-15T10:38:31.629Z,26.58
2023-05-15T10:41:13.081Z,26.32
2023-05-15T10:43:44.167Z,25.99
2023-05-15T10:46:11.621Z,25.80
2023-05-15T10:48:39.429Z,25.66
2023-05-15T10:51:14.966Z,25.65
2023-05-15T10:53:43.101Z,25.55
2023-05-15T10:56:17.100Z,25.34
2023-05-15T10:58:52.037Z,25.36
2023-05-15T11:01:29.678Z,25.15
2023-05-15T11:04:16.787Z,24.82
2023-05-15T11:06:46.701Z,24.54
2023-05-15T11:09:22.835Z,24.52
2023-05-15T11:11:52.746Z,24.58
2023-05-15T11:14:20.204Z,24.47
2023-05-15T11:16:52.947Z,24.33
2023-05-15T11:19:29.107Z,24.27
2023-05-15T11:22:08.969Z,24.19
2023-05-15T11:25:14.266Z,23.96
2023-05-15T11:27:46.200Z,23.89
2023-05-15T11:30:13.588Z,23.69
2023-05-15T11:33:08.483Z,23.45
2023-05-15T11:35:46.631Z,23.45
2023-05-15T11:38:20.092Z,23.31
2023-05-15T11:40:56.502Z,23.32
2023-05-15T11:43:28.930Z,23.39
2023-05-15T11:46:02.971Z,23.50
2023-05-15T11:48:42.080Z,23.41
2023-05-15T11:51:25.003Z,23.46
2023-05-15T11:53:55.252Z,23.49
2023-05-15T11:56:29.894Z,23.57
2023-05-15T11:59:02.188Z,23.56
2023-05-15T12:01:43.866Z,23.69
2023-05-15T12:04:15.928Z,23.83
2023-05-15T12:06:49.340Z,23.94
2023-05-15T12:09:19.674Z,23.94
2023-05-15T12:11:55.434Z,23.79
2023-05-15T12:14:31.688Z,23.81
2023-05-15T12:17:04.934Z,23.87
2023-05-15T12:19:34.118Z,23.82
2023-05-15T12:22:01.043Z,23.68
2023-05-15T12:24:27.928Z,23.49
2023-05-15T12:26:57.357Z,23.35
2023-05-15T12:29:26.535Z,23.21
2023-05-15T12:31:54.212Z,23.21
2023-05-15T12:34:21.850Z,23.27
2023-05-15T12:36:48.960Z,23.39
2023-05-15T12:39:15.790Z,23.55
2023-05-15T12:41:44.005Z,23.73
2023-05-15T12:44:20.418Z,23.73
2023-05-15T12:46:47.982Z,23.55
2023-05-15T12:49:22.953Z,23.53
2023-05-15T12:51:50.185Z,23.56
2023-05-15T12:54:18.926Z,23.64
2023-05-15T12:56:47.917Z,23.60
2023-05-15T12:59:14.845Z,23.49
2023-05-15T13:01:42.573Z,23.56
2023-05-15T13:04:10.350Z,23.73
2023-05-15T13:06:46.298Z,23.91
2023-05-15T13:09:14.414Z,24.00
2023-05-15T13:11:45.212Z,24.01
2023-05-15T13:14:17.152Z,23.86
2023-05-15T13:16:47.010Z,23.77
2023-05-15T13:19:14.088Z,23.77
2023-05-15T13:21:41.014Z,23.74
2023-05-15T13:24:09.962Z,23.54
2023-05-15T13:26:36.851Z,23.36
2023-05-15T13:29:03.792Z,23.15
2023-05-15T13:31:30.799Z,23.17
2023-05-15T13:33:57.689Z,23.24
2023-05-15T13:36:24.725Z,23.17
2023-05-15T13:38:51.635Z,23.20
2023-05-15T13:41:18.555Z,23.02
2023-05-15T13:43:47.770Z,22.85
2023-05-15T13:46:14.856Z,22.74
2023-05-15T13:48:41.746Z,22.77
2023-05-15T13:51:08.807Z,22.86
2023-05-15T13:53:35.969Z,22.97
2023-05-15T13:56:03.379Z,22.98
2023-05-15T13:58:30.514Z,22.99
2023-05-15T14:00:57.559Z,23.03
2023-05-15T14:03:24.660Z,23.09
2023-05-15T14:05:51.879Z,23.16
2023-05-15T14:08:18.753Z,23.22
2023-05-15T14:10:45.655Z,23.07
2023-05-15T14:13:12.471Z,23.10
2023-05-15T14:15:39.346Z,23.18
2023-05-15T14:18:06.400Z,23.20
2023-05-15T14:20:33.280Z,23.15
2023-05-15T14:23:00.347Z,23.21
2023-05-15T14:25:27.209Z,23.31
2023-05-15T14:27:54.048Z,23.31
2023-05-15T14:30:23.038Z,23.32
2023-05-15T14:32:50.074Z,23.32
2023-05-15T14:35:16.926Z,23.28
2023-05-15T14:37:43.876Z,23.21
2023-05-15T14:40:11.475Z,23.17
2023-05-15T14:42:38.351Z,23.15
2023-05-15T14:45:05.732Z,23.04
2023-05-15T14:47:33.701Z,22.93
2023-05-15T14:50:00.610Z,22.84
2023-05-15T14:52:27.481Z,22.81
2023-05-15T14:55:07.873Z,22.88
2023-05-15T14:57:35.361Z,22.89
2023-05-15T15:00:02.391Z,23.00
2023-05-15T15:02:29.404Z,23.05
2023-05-15T15:04:57.513Z,23.03
2023-05-15T15:07:29.960Z,22.97
2023-05-15T15:09:56.805Z,22.85
2023-05-15T15:12:23.683Z,22.72
2023-05-15T15:14:50.564Z,22.63
2023-05-15T15:17:18.374Z,22.59
2023-05-15T15:19:45.323Z,22.60
2023-05-15T15:22:15.429Z,22.56
2023-05-15T15:24:42.281Z,22.39
2023-05-15T15:27:09.179Z,22.27
2023-05-15T15:29:39.107Z,22.17
2023-05-15T15:32:09.115Z,22.18
2023-05-15T15:34:36.045Z,22.19
2023-05-15T15:37:03.059Z,22.16
2023-05-15T15:39:30.045Z,22.12
2023-05-15T15:41:57.132Z,22.05
2023-05-15T15:44:24.408Z,21.94
2023-05-15T15:46:51.263Z,21.88
2023-05-15T15:49:20.549Z,21.79
2023-05-15T15:51:47.545Z,21.77
2023-05-15T15:54:19.845Z,21.74
2023-05-15T15:56:48.163Z,21.70
2023-05-15T15:59:15.644Z,21.67
2023-05-15T16:01:42.729Z,21.57
2023-05-15T16:04:10.988Z,21.43
2023-05-15T16:06:41.355Z,21.36
2023-05-15T16:09:08.234Z,21.29
2023-05-15T16:11:38.188Z,21.26
2023-05-15T16:14:08.225Z,21.29
2023-05-15T16:16:38.119Z,21.32
2023-05-15T16:19:10.311Z,21.36
2023-05-15T16:21:40.153Z,21.38
2023-05-15T16:24:10.244Z,21.32
2023-05-15T16:26:40.316Z,21.19
2023-05-15T16:29:10.324Z,21.20
2023-05-15T16:31:38.269Z,21.17
2023-05-15T16:34:05.670Z,21.09
2023-05-15T16:36:32.617Z,21.01
2023-05-15T16:39:01.674Z,20.99
2023-05-15T16:41:28.908Z,20.94
2023-05-15T16:43:55.773Z,20.89
2023-05-15T16:46:22.746Z,20.83
2023-05-15T16:48:49.844Z,20.79
2023-05-15T16:51:16.792Z,20.72
2023-05-15T16:53:44.340Z,20.71
2023-05-15T16:56:13.666Z,20.70
2023-05-15T16:58:42.288Z,20.72
2023-05-15T17:01:09.132Z,20.73
2023-05-15T17:03:36.343Z,20.71
2023-05-15T17:06:03.573Z,20.70
2023-05-15T17:08:30.431Z,20.67
2023-05-15T17:10:57.251Z,20.71
2023-05-15T17:13:25.505Z,20.72
2023-05-15T17:15:54.108Z,20.78
2023-05-15T17:18:21.978Z,20.82
2023-05-15T17:20:48.837Z,20.88
2023-05-15T17:23:15.776Z,20.95
2023-05-15T17:25:42.590Z,20.94
2023-05-15T17:28:09.391Z,20.94
2023-05-15T17:30:36.359Z,20.94
2023-05-15T17:33:03.431Z,20.91
2023-05-15T17:35:32.788Z,20.93
2023-05-15T17:38:00.082Z,20.89
2023-05-15T17:40:27.011Z,20.90
2023-05-15T17:42:53.904Z,20.86
2023-05-15T17:45:20.924Z,20.87
2023-05-15T17:47:49.141Z,20.83
2023-05-15T17:50:16.152Z,20.82
2023-05-15T17:52:43.012Z,20.83
2023-05-15T17:55:10.069Z,20.81
2023-05-15T17:57:36.970Z,20.75
2023-05-15T18:00:05.722Z,20.75
2023-05-15T18:02:32.596Z,20.71
2023-05-15T18:04:59.517Z,20.62
2023-05-15T18:07:26.409Z,20.55
2023-05-15T18:09:53.270Z,20.49
2023-05-15T18:12:20.199Z,20.44
2023-05-15T18:14:47.024Z,20.39
2023-05-15T18:17:13.984Z,20.34
2023-05-15T18:19:44.631Z,20.29
2023-05-15T18:22:11.824Z,20.27
2023-05-15T18:24:38.622Z,20.25
2023-05-15T18:27:05.751Z,20.20
2023-05-15T18:29:32.602Z,20.20
2023-05-15T18:31:59.635Z,20.16
2023-05-15T18:34:26.526Z,20.12
2023-05-15T18:36:53.365Z,20.09
2023-05-15T18:39:20.572Z,20.07
2023-05-15T18:41:47.442Z,20.04
2023-05-15T18:44:14.350Z,20.01
2023-05-15T18:46:41.355Z,19.95
2023-05-15T18:49:08.324Z,19.92
2023-05-15T18:51:35.669Z,19.89
2023-05-15T18:54:02.583Z,19.86
2023-05-15T18:56:30.643Z,19.86
2023-05-15T18:58:57.476Z,19.78
2023-05-15T19:01:24.454Z,19.59
2023-05-15T19:03:51.496Z,19.40
2023-05-15T19:06:20.148Z,19.19
2023-05-15T19:08:48.176Z,19.05
2023-05-15T19:11:15.638Z,18.91
2023-05-15T19:13:42.581Z,18.69
2023-05-15T19:16:10.266Z,18.49
2023-05-15T19:18:37.177Z,18.37
2023-05-15T19:21:04.866Z,18.28
2023-05-15T19:23:31.816Z,18.13
2023-05-15T19:25:58.683Z,17.99
2023-05-15T19:28:25.689Z,17.83
2023-05-15T19:30:52.585Z,17.71
2023-05-15T19:33:20.496Z,17.58
2023-05-15T19:35:48.900Z,17.43
2023-05-15T19:38:15.949Z,17.33
2023-05-15T19:40:45.248Z,17.26
2023-05-15T19:43:14.117Z,17.17
2023-05-15T19:45:44.063Z,17.08
2023-05-15T19:48:11.033Z,17.05
2023-05-15T19:50:41.138Z,17.05
2023-05-15T19:53:08.237Z,17.04
2023-05-15T19:55:35.251Z,17.02
2023-05-15T19:58:02.066Z,16.99
2023-05-15T20:00:28.969Z,16.99
2023-05-15T20:02:56.051Z,16.97
2023-05-15T20:05:22.987Z,16.97
2023-05-15T20:07:50.011Z,16.91
2023-05-15T20:10:18.932Z,16.93
2023-05-15T20:12:46.778Z,16.74
2023-05-15T20:15:15.095Z,16.69
2023-05-15T20:17:43.080Z,16.68
2023-05-15T20:20:12.010Z,16.70
2023-05-15T20:22:44.025Z,16.75
2023-05-15T20:25:11.354Z,16.84
2023-05-15T20:27:38.206Z,16.92
2023-05-15T20:30:06.186Z,16.95
2023-05-15T20:32:33.236Z,17.00
2023-05-15T20:35:00.476Z,17.05
2023-05-15T20:37:27.887Z,17.08
2023-05-15T20:39:54.992Z,17.13
2023-05-15T20:42:22.566Z,17.08
2023-05-15T20:44:50.884Z,17.07
2023-05-15T20:47:17.794Z,17.10
2023-05-15T20:49:44.665Z,17.08
2023-05-15T20:52:11.920Z,17.03
2023-05-15T20:54:38.764Z,16.98
2023-05-15T20:57:06.080Z,16.93
2023-05-15T20:59:33.825Z,16.90
2023-05-15T21:02:00.750Z,16.88
2023-05-15T21:04:30.986Z,16.80
2023-05-15T21:06:57.898Z,16.82
2023-05-15T21:09:25.078Z,16.81
2023-05-15T21:11:51.925Z,16.78
2023-05-15T21:14:18.804Z,16.78
2023-05-15T21:16:45.761Z,16.80
2023-05-15T21:19:12.783Z,16.80
2023-05-15T21:21:39.806Z,16.82
2023-05-15T21:24:07.121Z,16.81
2023-05-15T21:26:34.040Z,16.82
2023-05-15T21:29:01.316Z,16.80
2023-05-15T21:31:28.346Z,16.80
2023-05-15T21:33:55.356Z,16.78
2023-05-15T21:36:22.771Z,16.76
2023-05-15T21:38:49.733Z,16.77
2023-05-15T21:41:16.652Z,16.74
2023-05-15T21:43:43.594Z,16.75
2023-05-15T21:46:10.699Z,16.72
2023-05-15T21:48:37.526Z,16.70
2023-05-15T21:51:04.419Z,16.68
2023-05-15T21:53:31.352Z,16.65
2023-05-15T21:56:02.097Z,16.64
2023-05-15T21:58:29.139Z,16.62
2023-05-15T22:00:56.123Z,16.60
2023-05-15T22:03:23.334Z,16.57
2023-05-15T22:05:52.718Z,16.54
2023-05-15T22:08:20.265Z,16.51
2023-05-15T22:10:50.519Z,16.49
2023-05-15T22:13:17.565Z,16.46
2023-05-15T22:15:44.586Z,16.46
2023-05-15T22:18:12.735Z,16.36
2023-05-15T22:20:39.553Z,16.35
2023-05-15T22:23:07.513Z,16.29
2023-05-15T22:25:34.401Z,16.25
2023-05-15T22:28:01.289Z,16.25
2023-05-15T22:30:28.369Z,16.25
2023-05-15T22:32:55.575Z,16.25
2023-05-15T22:35:22.403Z,16.21
2023-05-15T22:37:49.373Z,16.19
2023-05-15T22:40:16.338Z,16.16
2023-05-15T22:42:43.211Z,16.15
2023-05-15T22:45:10.555Z,16.12
2023-05-15T22:47:37.662Z,16.09
2023-05-15T22:50:05.232Z,16.04
2023-05-15T22:52:32.139Z,16.01
2023-05-15T22:54:59.226Z,15.98
2023-05-15T22:57:26.762Z,15.94
2023-05-15T22:59:53.561Z,15.90
2023-05-15T23:02:20.502Z,15.85
2023-05-15T23:04:47.438Z,15.82
2023-05-15T23:07:14.434Z,15.78
2023-05-15T23:09:41.856Z,15.71
2023-05-15T23:12:08.723Z,15.71
2023-05-15T23:14:35.573Z,15.69
2023-05-15T23:17:03.566Z,15.66
2023-05-15T23:19:30.405Z,15.59
2023-05-15T23:21:57.356Z,15.57
2023-05-15T23:24:24.180Z,15.48
2023-05-15T23:26:51.043Z,15.42
2023-05-15T23:29:17.868Z,15.41
2023-05-15T23:31:45.025Z,15.44
2023-05-15T23:34:11.969Z,15.43
2023-05-15T23:36:38.861Z,15.43
2023-05-15T23:39:05.871Z,15.43
2023-05-15T23:41:32.789Z,15.44
2023-05-15T23:43:59.639Z,15.42
2023-05-15T23:46:26.556Z,15.41
2023-05-15T23:48:53.446Z,15.43
2023-05-15T23:51:20.548Z,15.44
2023-05-15T23:53:47.418Z,15.45
2023-05-15T23:56:14.353Z,15.43
2023-05-15T23:58:41.605Z,15.43
